sensor_id;sensor_type;location;lat;lon;timestamp;temperature;humidity
33645;DHT22;19986;48.190;16.366;2023-04-15T00:00:07;7.60;99.90
33645;DHT22;19986;48.190;16.366;2023-04-15T00:02:34;7.60;99.90
33645;DHT22;19986;48.190;16.366;2023-04-15T00:05:00;7.60;99.90
33645;DHT22;19986;48.190;16.366;2023-04-15T00:07:26;7.50;99.90
33645;DHT22;19986;48.190;16.366;2023-04-15T00:09:52;7.50;99.90
33645;DHT22;19986;48.190;16.366;2023-04-15T00:12:20;7.60;99.90
33645;DHT22;19986;48.190;16.366;2023-04-15T00:14:46;7.70;99.90
33645;DHT22;19986;48.190;16.366;2023-04-15T00:17:13;7.70;99.90
33645;DHT22;19986;48.190;16.366;2023-04-15T00:19:39;7.70;99.90
33645;DHT22;19986;48.190;16.366;2023-04-15T00:22:05;7.80;99.90
33645;DHT22;19986;48.190;16.366;2023-04-15T00:24:31;7.70;99.90
33645;DHT22;19986;48.190;16.366;2023-04-15T00:26:57;7.70;99.90
33645;DHT22;19986;48.190;16.366;2023-04-15T00:29:24;7.70;99.90
33645;DHT22;19986;48.190;16.366;2023-04-15T00:31:51;7.70;99.90
33645;DHT22;19986;48.190;16.366;2023-04-15T00:34:16;7.70;99.90
33645;DHT22;19986;48.190;16.366;2023-04-15T00:36:43;7.80;99.90
33645;DHT22;19986;48.190;16.366;2023-04-15T00:39:09;7.70;99.90
33645;DHT22;19986;48.190;16.366;2023-04-15T00:41:35;7.80;99.90
33645;DHT22;19986;48.190;16.366;2023-04-15T00:44:05;7.70;99.90
33645;DHT22;19986;48.190;16.366;2023-04-15T00:46:34;7.80;99.90
33645;DHT22;19986;48.190;16.366;2023-04-15T00:49:01;7.80;99.90
33645;DHT22;19986;48.190;16.366;2023-04-15T00:51:27;7.90;99.90
33645;DHT22;19986;48.190;16.366;2023-04-15T00:53:53;7.80;99.90
33645;DHT22;19986;48.190;16.366;2023-04-15T00:56:20;7.80;99.90
33645;DHT22;19986;48.190;16.366;2023-04-15T00:58:47;7.80;99.90
33645;DHT22;19986;48.190;16.366;2023-04-15T01:01:12;7.80;99.90
33645;DHT22;19986;48.190;16.366;2023-04-15T01:03:38;7.90;99.90
33645;DHT22;19986;48.190;16.366;2023-04-15T01:06:05;7.90;99.90
33645;DHT22;19986;48.190;16.366;2023-04-15T01:08:32;7.90;99.90
33645;DHT22;19986;48.190;16.366;2023-04-15T01:11:00;7.90;99.90
33645;DHT22;19986;48.190;16.366;2023-04-15T01:13:28;7.80;99.90
33645;DHT22;19986;48.190;16.366;2023-04-15T01:15:55;7.80;99.90
33645;DHT22;19986;48.190;16.366;2023-04-15T01:18:22;7.90;99.90
33645;DHT22;19986;48.190;16.366;2023-04-15T01:20:48;7.90;99.90
33645;DHT22;19986;48.190;16.366;2023-04-15T01:23:14;7.80;99.90
33645;DHT22;19986;48.190;16.366;2023-04-15T01:25:42;7.90;99.90
33645;DHT22;19986;48.190;16.366;2023-04-15T01:28:09;7.90;99.90
33645;DHT22;19986;48.190;16.366;2023-04-15T01:30:35;7.80;99.90
33645;DHT22;19986;48.190;16.366;2023-04-15T01:33:01;7.80;99.90
33645;DHT22;19986;48.190;16.366;2023-04-15T01:35:28;7.80;99.90
33645;DHT22;19986;48.190;16.366;2023-04-15T01:38:00;7.80;99.90
33645;DHT22;19986;48.190;16.366;2023-04-15T01:40:28;7.80;99.90
33645;DHT22;19986;48.190;16.366;2023-04-15T01:42:54;7.80;99.90
33645;DHT22;19986;48.190;16.366;2023-04-15T01:45:21;7.80;99.90
33645;DHT22;19986;48.190;16.366;2023-04-15T01:47:46;7.80;99.90
33645;DHT22;19986;48.190;16.366;2023-04-15T01:50:14;7.90;99.90
33645;DHT22;19986;48.190;16.366;2023-04-15T01:52:41;7.90;99.90
33645;DHT22;19986;48.190;16.366;2023-04-15T01:55:07;7.90;99.90
33645;DHT22;19986;48.190;16.366;2023-04-15T01:57:34;8.00;99.90
33645;DHT22;19986;48.190;16.366;2023-04-15T02:00:02;8.10;99.90
33645;DHT22;19986;48.190;16.366;2023-04-15T02:02:29;8.00;99.90
33645;DHT22;19986;48.190;16.366;2023-04-15T02:04:56;8.10;99.90
33645;DHT22;19986;48.190;16.366;2023-04-15T02:07:21;8.10;99.90
33645;DHT22;19986;48.190;16.366;2023-04-15T02:09:48;8.10;99.90
33645;DHT22;19986;48.190;16.366;2023-04-15T02:12:14;8.10;99.90
33645;DHT22;19986;48.190;16.366;2023-04-15T02:14:40;8.20;99.90
33645;DHT22;19986;48.190;16.366;2023-04-15T02:17:05;8.10;99.90
33645;DHT22;19986;48.190;16.366;2023-04-15T02:19:36;8.10;99.90
33645;DHT22;19986;48.190;16.366;2023-04-15T02:22:02;8.10;99.90
33645;DHT22;19986;48.190;16.366;2023-04-15T02:24:29;8.00;99.90
33645;DHT22;19986;48.190;16.366;2023-04-15T02:26:55;8.10;99.90
33645;DHT22;19986;48.190;16.366;2023-04-15T02:29:22;8.10;99.90
33645;DHT22;19986;48.190;16.366;2023-04-15T02:31:48;8.20;99.90
33645;DHT22;19986;48.190;16.366;2023-04-15T02:34:15;8.20;99.90
33645;DHT22;19986;48.190;16.366;2023-04-15T02:36:41;8.10;99.90
33645;DHT22;19986;48.190;16.366;2023-04-15T02:39:07;8.20;99.90
33645;DHT22;19986;48.190;16.366;2023-04-15T02:41:39;8.20;99.90
33645;DHT22;19986;48.190;16.366;2023-04-15T02:44:11;8.30;99.90
33645;DHT22;19986;48.190;16.366;2023-04-15T02:46:37;8.30;99.90
33645;DHT22;19986;48.190;16.366;2023-04-15T02:49:03;8.30;99.90
33645;DHT22;19986;48.190;16.366;2023-04-15T02:51:29;8.20;99.90
33645;DHT22;19986;48.190;16.366;2023-04-15T02:53:58;8.30;99.90
33645;DHT22;19986;48.190;16.366;2023-04-15T02:56:24;8.30;99.90
33645;DHT22;19986;48.190;16.366;2023-04-15T02:58:50;8.40;99.90
33645;DHT22;19986;48.190;16.366;2023-04-15T03:01:16;8.30;99.90
33645;DHT22;19986;48.190;16.366;2023-04-15T03:03:42;8.30;99.90
33645;DHT22;19986;48.190;16.366;2023-04-15T03:06:08;8.30;99.90
33645;DHT22;19986;48.190;16.366;2023-04-15T03:08:34;8.30;99.90
33645;DHT22;19986;48.190;16.366;2023-04-15T03:11:00;8.40;99.90
33645;DHT22;19986;48.190;16.366;2023-04-15T03:13:27;8.50;99.90
33645;DHT22;19986;48.190;16.366;2023-04-15T03:15:53;8.50;99.90
33645;DHT22;19986;48.190;16.366;2023-04-15T03:18:19;8.50;99.90
33645;DHT22;19986;48.190;16.366;2023-04-15T03:20:46;8.50;99.90
33645;DHT22;19986;48.190;16.366;2023-04-15T03:23:17;8.50;99.90
33645;DHT22;19986;48.190;16.366;2023-04-15T03:25:44;8.50;99.90
33645;DHT22;19986;48.190;16.366;2023-04-15T03:28:10;8.40;99.90
33645;DHT22;19986;48.190;16.366;2023-04-15T03:30:36;8.40;99.90
33645;DHT22;19986;48.190;16.366;2023-04-15T03:33:03;8.50;99.90
33645;DHT22;19986;48.190;16.366;2023-04-15T03:35:28;8.50;99.90
33645;DHT22;19986;48.190;16.366;2023-04-15T03:37:54;8.60;99.90
33645;DHT22;19986;48.190;16.366;2023-04-15T03:40:20;8.60;99.90
33645;DHT22;19986;48.190;16.366;2023-04-15T03:42:47;8.60;99.90
33645;DHT22;19986;48.190;16.366;2023-04-15T03:45:12;8.70;99.90
33645;DHT22;19986;48.190;16.366;2023-04-15T03:47:38;8.70;99.90
33645;DHT22;19986;48.190;16.366;2023-04-15T03:50:05;8.70;99.90
33645;DHT22;19986;48.190;16.366;2023-04-15T03:52:32;8.70;99.90
33645;DHT22;19986;48.190;16.366;2023-04-15T03:54:59;8.70;99.90
33645;DHT22;19986;48.190;16.366;2023-04-15T03:57:25;8.80;99.90
33645;DHT22;19986;48.190;16.366;2023-04-15T03:59:50;8.80;99.90
33645;DHT22;19986;48.190;16.366;2023-04-15T04:02:16;8.80;99.90
33645;DHT22;19986;48.190;16.366;2023-04-15T04:04:42;8.80;99.90
33645;DHT22;19986;48.190;16.366;2023-04-15T04:07:13;8.90;99.90
33645;DHT22;19986;48.190;16.366;2023-04-15T04:09:39;8.80;99.90
33645;DHT22;19986;48.190;16.366;2023-04-15T04:12:07;8.80;99.90
33645;DHT22;19986;48.190;16.366;2023-04-15T04:14:34;8.80;99.90
33645;DHT22;19986;48.190;16.366;2023-04-15T04:17:00;8.80;99.90
33645;DHT22;19986;48.190;16.366;2023-04-15T04:19:26;8.70;99.90
33645;DHT22;19986;48.190;16.366;2023-04-15T04:21:52;8.70;99.90
33645;DHT22;19986;48.190;16.366;2023-04-15T04:24:18;8.70;99.90
33645;DHT22;19986;48.190;16.366;2023-04-15T04:26:44;8.60;99.90
33645;DHT22;19986;48.190;16.366;2023-04-15T04:29:10;8.60;99.90
33645;DHT22;19986;48.190;16.366;2023-04-15T04:31:36;8.70;99.90
33645;DHT22;19986;48.190;16.366;2023-04-15T04:34:02;8.60;99.90
33645;DHT22;19986;48.190;16.366;2023-04-15T04:36:28;8.70;99.90
33645;DHT22;19986;48.190;16.366;2023-04-15T04:38:54;8.70;99.90
33645;DHT22;19986;48.190;16.366;2023-04-15T04:41:20;8.70;99.90
33645;DHT22;19986;48.190;16.366;2023-04-15T04:43:46;8.80;99.90
33645;DHT22;19986;48.190;16.366;2023-04-15T04:46:12;8.90;99.90
33645;DHT22;19986;48.190;16.366;2023-04-15T04:48:38;8.90;99.90
33645;DHT22;19986;48.190;16.366;2023-04-15T04:51:04;8.90;99.90
33645;DHT22;19986;48.190;16.366;2023-04-15T04:53:30;9.00;99.90
33645;DHT22;19986;48.190;16.366;2023-04-15T04:55:57;9.10;99.90
33645;DHT22;19986;48.190;16.366;2023-04-15T04:58:23;9.10;99.90
33645;DHT22;19986;48.190;16.366;2023-04-15T05:00:50;9.10;99.90
33645;DHT22;19986;48.190;16.366;2023-04-15T05:03:17;9.10;99.90
33645;DHT22;19986;48.190;16.366;2023-04-15T05:05:43;9.20;99.90
33645;DHT22;19986;48.190;16.366;2023-04-15T05:08:09;9.20;99.90
33645;DHT22;19986;48.190;16.366;2023-04-15T05:10:35;9.30;99.90
33645;DHT22;19986;48.190;16.366;2023-04-15T05:13:02;9.30;99.90
33645;DHT22;19986;48.190;16.366;2023-04-15T05:15:28;9.30;99.90
33645;DHT22;19986;48.190;16.366;2023-04-15T05:17:54;9.30;99.90
33645;DHT22;19986;48.190;16.366;2023-04-15T05:20:19;9.40;99.90
33645;DHT22;19986;48.190;16.366;2023-04-15T05:22:46;9.40;99.90
33645;DHT22;19986;48.190;16.366;2023-04-15T05:25:13;9.50;99.90
33645;DHT22;19986;48.190;16.366;2023-04-15T05:27:38;9.50;99.90
33645;DHT22;19986;48.190;16.366;2023-04-15T05:30:05;9.50;99.90
33645;DHT22;19986;48.190;16.366;2023-04-15T05:32:36;9.60;99.90
33645;DHT22;19986;48.190;16.366;2023-04-15T05:35:02;9.60;99.90
33645;DHT22;19986;48.190;16.366;2023-04-15T05:37:31;9.70;99.90
33645;DHT22;19986;48.190;16.366;2023-04-15T05:39:57;9.70;99.90
33645;DHT22;19986;48.190;16.366;2023-04-15T05:42:24;9.80;99.90
33645;DHT22;19986;48.190;16.366;2023-04-15T05:44:50;9.80;99.90
33645;DHT22;19986;48.190;16.366;2023-04-15T05:47:16;9.90;99.90
33645;DHT22;19986;48.190;16.366;2023-04-15T05:49:42;9.90;99.90
33645;DHT22;19986;48.190;16.366;2023-04-15T05:52:08;10.00;99.90
33645;DHT22;19986;48.190;16.366;2023-04-15T05:54:33;10.00;99.90
33645;DHT22;19986;48.190;16.366;2023-04-15T05:56:59;10.00;99.90
33645;DHT22;19986;48.190;16.366;2023-04-15T05:59:26;10.10;99.90
33645;DHT22;19986;48.190;16.366;2023-04-15T06:01:52;10.10;99.90
33645;DHT22;19986;48.190;16.366;2023-04-15T06:04:18;10.20;99.90
33645;DHT22;19986;48.190;16.366;2023-04-15T06:06:45;10.20;99.90
33645;DHT22;19986;48.190;16.366;2023-04-15T06:09:10;10.20;99.90
33645;DHT22;19986;48.190;16.366;2023-04-15T06:11:36;10.20;99.90
33645;DHT22;19986;48.190;16.366;2023-04-15T06:14:02;10.10;99.90
33645;DHT22;19986;48.190;16.366;2023-04-15T06:16:28;10.10;99.90
33645;DHT22;19986;48.190;16.366;2023-04-15T06:18:54;10.10;99.90
33645;DHT22;19986;48.190;16.366;2023-04-15T06:21:20;10.00;99.90
33645;DHT22;19986;48.190;16.366;2023-04-15T06:23:46;10.10;99.90
33645;DHT22;19986;48.190;16.366;2023-04-15T06:26:11;10.10;99.90
33645;DHT22;19986;48.190;16.366;2023-04-15T06:28:37;10.10;99.90
33645;DHT22;19986;48.190;16.366;2023-04-15T06:31:03;10.20;99.90
33645;DHT22;19986;48.190;16.366;2023-04-15T06:33:29;10.30;99.90
33645;DHT22;19986;48.190;16.366;2023-04-15T06:35:55;10.40;99.90
33645;DHT22;19986;48.190;16.366;2023-04-15T06:38:21;10.50;99.90
33645;DHT22;19986;48.190;16.366;2023-04-15T06:40:46;10.60;99.90
33645;DHT22;19986;48.190;16.366;2023-04-15T06:43:12;10.70;99.90
33645;DHT22;19986;48.190;16.366;2023-04-15T06:45:38;10.80;99.90
33645;DHT22;19986;48.190;16.366;2023-04-15T06:48:04;10.90;99.90
33645;DHT22;19986;48.190;16.366;2023-04-15T06:50:30;11.00;99.90
33645;DHT22;19986;48.190;16.366;2023-04-15T06:52:56;11.10;99.90
33645;DHT22;19986;48.190;16.366;2023-04-15T06:55:22;11.10;99.90
33645;DHT22;19986;48.190;16.366;2023-04-15T06:57:47;11.10;99.90
33645;DHT22;19986;48.190;16.366;2023-04-15T07:00:14;11.00;99.90
33645;DHT22;19986;48.190;16.366;2023-04-15T07:02:40;11.20;99.90
33645;DHT22;19986;48.190;16.366;2023-04-15T07:05:06;11.20;99.90
33645;DHT22;19986;48.190;16.366;2023-04-15T07:07:32;11.30;99.90
33645;DHT22;19986;48.190;16.366;2023-04-15T07:09:58;11.30;99.90
33645;DHT22;19986;48.190;16.366;2023-04-15T07:12:25;11.20;99.90
33645;DHT22;19986;48.190;16.366;2023-04-15T07:14:50;11.20;99.90
33645;DHT22;19986;48.190;16.366;2023-04-15T07:17:16;11.10;99.90
33645;DHT22;19986;48.190;16.366;2023-04-15T07:19:42;11.20;99.90
33645;DHT22;19986;48.190;16.366;2023-04-15T07:22:08;11.40;99.90
33645;DHT22;19986;48.190;16.366;2023-04-15T07:24:34;11.30;99.90
33645;DHT22;19986;48.190;16.366;2023-04-15T07:27:00;11.30;99.90
33645;DHT22;19986;48.190;16.366;2023-04-15T07:29:26;11.40;99.90
33645;DHT22;19986;48.190;16.366;2023-04-15T07:31:52;11.30;99.90
33645;DHT22;19986;48.190;16.366;2023-04-15T07:34:19;11.40;99.90
33645;DHT22;19986;48.190;16.366;2023-04-15T07:36:45;11.40;99.90
33645;DHT22;19986;48.190;16.366;2023-04-15T07:39:15;11.50;99.90
33645;DHT22;19986;48.190;16.366;2023-04-15T07:41:41;11.40;99.90
33645;DHT22;19986;48.190;16.366;2023-04-15T07:44:07;11.40;99.90
33645;DHT22;19986;48.190;16.366;2023-04-15T07:46:33;11.40;99.90
33645;DHT22;19986;48.190;16.366;2023-04-15T07:48:59;11.30;99.90
33645;DHT22;19986;48.190;16.366;2023-04-15T07:51:25;11.40;99.90
33645;DHT22;19986;48.190;16.366;2023-04-15T07:53:51;11.30;99.90
33645;DHT22;19986;48.190;16.366;2023-04-15T07:56:17;11.50;99.90
33645;DHT22;19986;48.190;16.366;2023-04-15T07:58:43;11.80;99.90
33645;DHT22;19986;48.190;16.366;2023-04-15T08:01:09;12.10;99.90
33645;DHT22;19986;48.190;16.366;2023-04-15T08:03:35;12.30;99.90
33645;DHT22;19986;48.190;16.366;2023-04-15T08:06:01;12.20;99.90
33645;DHT22;19986;48.190;16.366;2023-04-15T08:08:27;12.20;99.90
33645;DHT22;19986;48.190;16.366;2023-04-15T08:10:53;12.00;99.90
33645;DHT22;19986;48.190;16.366;2023-04-15T08:13:19;12.10;99.90
33645;DHT22;19986;48.190;16.366;2023-04-15T08:15:45;12.20;99.90
33645;DHT22;19986;48.190;16.366;2023-04-15T08:18:11;12.40;99.90
33645;DHT22;19986;48.190;16.366;2023-04-15T08:20:37;12.50;99.90
33645;DHT22;19986;48.190;16.366;2023-04-15T08:23:03;12.60;99.90
33645;DHT22;19986;48.190;16.366;2023-04-15T08:25:29;12.60;99.90
33645;DHT22;19986;48.190;16.366;2023-04-15T08:27:55;12.50;99.90
33645;DHT22;19986;48.190;16.366;2023-04-15T08:30:24;12.50;99.90
33645;DHT22;19986;48.190;16.366;2023-04-15T08:32:50;12.60;99.90
33645;DHT22;19986;48.190;16.366;2023-04-15T08:35:16;12.70;99.90
33645;DHT22;19986;48.190;16.366;2023-04-15T08:37:42;12.70;99.90
33645;DHT22;19986;48.190;16.366;2023-04-15T08:40:09;12.70;99.90
33645;DHT22;19986;48.190;16.366;2023-04-15T08:42:43;12.70;99.90
33645;DHT22;19986;48.190;16.366;2023-04-15T08:45:10;12.40;99.90
33645;DHT22;19986;48.190;16.366;2023-04-15T08:47:37;12.20;99.90
33645;DHT22;19986;48.190;16.366;2023-04-15T08:50:04;12.00;99.90
33645;DHT22;19986;48.190;16.366;2023-04-15T08:52:33;11.90;99.90
33645;DHT22;19986;48.190;16.366;2023-04-15T08:55:01;12.00;99.90
33645;DHT22;19986;48.190;16.366;2023-04-15T08:57:28;12.10;99.90
33645;DHT22;19986;48.190;16.366;2023-04-15T08:59:57;12.20;99.90
33645;DHT22;19986;48.190;16.366;2023-04-15T09:02:24;12.20;99.90
33645;DHT22;19986;48.190;16.366;2023-04-15T09:04:53;12.10;99.90
33645;DHT22;19986;48.190;16.366;2023-04-15T09:07:18;11.90;99.90
33645;DHT22;19986;48.190;16.366;2023-04-15T09:09:44;11.90;99.90
33645;DHT22;19986;48.190;16.366;2023-04-15T09:12:11;11.90;99.90
33645;DHT22;19986;48.190;16.366;2023-04-15T09:14:39;11.90;99.90
33645;DHT22;19986;48.190;16.366;2023-04-15T09:17:05;12.00;99.90
33645;DHT22;19986;48.190;16.366;2023-04-15T09:19:35;12.20;99.90
33645;DHT22;19986;48.190;16.366;2023-04-15T09:22:01;12.30;99.90
33645;DHT22;19986;48.190;16.366;2023-04-15T09:24:37;12.30;99.90
33645;DHT22;19986;48.190;16.366;2023-04-15T09:27:04;12.50;99.90
33645;DHT22;19986;48.190;16.366;2023-04-15T09:29:30;12.70;99.90
33645;DHT22;19986;48.190;16.366;2023-04-15T09:31:56;12.90;99.90
33645;DHT22;19986;48.190;16.366;2023-04-15T09:34:34;13.10;99.90
33645;DHT22;19986;48.190;16.366;2023-04-15T09:37:01;13.10;99.90
33645;DHT22;19986;48.190;16.366;2023-04-15T09:39:27;13.00;99.90
33645;DHT22;19986;48.190;16.366;2023-04-15T09:42:06;13.00;99.90
33645;DHT22;19986;48.190;16.366;2023-04-15T09:44:31;12.90;99.90
33645;DHT22;19986;48.190;16.366;2023-04-15T09:46:58;12.80;99.90
33645;DHT22;19986;48.190;16.366;2023-04-15T09:49:24;12.90;99.90
33645;DHT22;19986;48.190;16.366;2023-04-15T09:51:50;12.90;99.90
33645;DHT22;19986;48.190;16.366;2023-04-15T09:54:20;12.90;99.90
33645;DHT22;19986;48.190;16.366;2023-04-15T09:56:46;12.90;99.90
33645;DHT22;19986;48.190;16.366;2023-04-15T09:59:13;13.00;99.90
33645;DHT22;19986;48.190;16.366;2023-04-15T10:01:40;13.00;99.90
33645;DHT22;19986;48.190;16.366;2023-04-15T10:04:08;12.90;99.90
33645;DHT22;19986;48.190;16.366;2023-04-15T10:06:35;12.90;99.90
33645;DHT22;19986;48.190;16.366;2023-04-15T10:09:01;12.80;99.90
33645;DHT22;19986;48.190;16.366;2023-04-15T10:11:30;12.80;99.90
33645;DHT22;19986;48.190;16.366;2023-04-15T10:13:56;12.70;99.90
33645;DHT22;19986;48.190;16.366;2023-04-15T10:16:26;12.60;99.90
33645;DHT22;19986;48.190;16.366;2023-04-15T10:18:56;12.60;99.90
33645;DHT22;19986;48.190;16.366;2023-04-15T10:21:23;12.70;99.90
33645;DHT22;19986;48.190;16.366;2023-04-15T10:23:49;12.70;99.90
33645;DHT22;19986;48.190;16.366;2023-04-15T10:26:16;12.70;99.90
33645;DHT22;19986;48.190;16.366;2023-04-15T10:28:43;12.60;99.90
33645;DHT22;19986;48.190;16.366;2023-04-15T10:31:11;12.50;99.90
33645;DHT22;19986;48.190;16.366;2023-04-15T10:33:39;12.30;99.90
33645;DHT22;19986;48.190;16.366;2023-04-15T10:36:06;12.20;99.90
33645;DHT22;19986;48.190;16.366;2023-04-15T10:46:41;12.30;99.90
33645;DHT22;19986;48.190;16.366;2023-04-15T10:49:15;12.30;99.90
33645;DHT22;19986;48.190;16.366;2023-04-15T10:51:42;12.40;99.90
33645;DHT22;19986;48.190;16.366;2023-04-15T10:54:14;12.40;99.90
33645;DHT22;19986;48.190;16.366;2023-04-15T10:57:06;12.40;99.90
33645;DHT22;19986;48.190;16.366;2023-04-15T10:59:36;12.50;99.90
33645;DHT22;19986;48.190;16.366;2023-04-15T11:02:05;12.60;99.90
33645;DHT22;19986;48.190;16.366;2023-04-15T11:15:39;13.00;99.90
33645;DHT22;19986;48.190;16.366;2023-04-15T11:18:10;12.90;99.90
33645;DHT22;19986;48.190;16.366;2023-04-15T11:20:37;13.00;99.90
33645;DHT22;19986;48.190;16.366;2023-04-15T11:23:03;13.10;99.90
33645;DHT22;19986;48.190;16.366;2023-04-15T11:25:31;13.30;99.90
33645;DHT22;19986;48.190;16.366;2023-04-15T11:27:59;13.30;99.90
33645;DHT22;19986;48.190;16.366;2023-04-15T11:30:27;13.20;99.90
33645;DHT22;19986;48.190;16.366;2023-04-15T11:33:01;13.20;99.90
33645;DHT22;19986;48.190;16.366;2023-04-15T11:35:28;13.20;99.90
33645;DHT22;19986;48.190;16.366;2023-04-15T11:37:55;13.20;99.90
33645;DHT22;19986;48.190;16.366;2023-04-15T11:40:25;13.30;99.90
33645;DHT22;19986;48.190;16.366;2023-04-15T11:45:32;13.40;99.90
33645;DHT22;19986;48.190;16.366;2023-04-15T11:48:10;13.40;99.90
33645;DHT22;19986;48.190;16.366;2023-04-15T11:50:37;13.50;99.90
33645;DHT22;19986;48.190;16.366;2023-04-15T11:53:10;13.70;99.90
33645;DHT22;19986;48.190;16.366;2023-04-15T11:55:47;13.70;99.90
33645;DHT22;19986;48.190;16.366;2023-04-15T11:58:15;13.80;99.90
33645;DHT22;19986;48.190;16.366;2023-04-15T12:00:51;13.90;99.90
33645;DHT22;19986;48.190;16.366;2023-04-15T12:06:10;14.20;99.90
33645;DHT22;19986;48.190;16.366;2023-04-15T12:16:23;13.90;99.90
33645;DHT22;19986;48.190;16.366;2023-04-15T12:18:57;13.80;99.90
33645;DHT22;19986;48.190;16.366;2023-04-15T12:21:25;13.70;99.90
33645;DHT22;19986;48.190;16.366;2023-04-15T12:26:28;13.30;99.90
33645;DHT22;19986;48.190;16.366;2023-04-15T12:29:05;13.30;99.90
33645;DHT22;19986;48.190;16.366;2023-04-15T12:31:35;13.20;99.90
33645;DHT22;19986;48.190;16.366;2023-04-15T12:34:02;13.20;99.90
33645;DHT22;19986;48.190;16.366;2023-04-15T12:36:29;13.10;99.90
33645;DHT22;19986;48.190;16.366;2023-04-15T12:39:01;13.10;99.90
33645;DHT22;19986;48.190;16.366;2023-04-15T12:41:27;13.10;99.90
33645;DHT22;19986;48.190;16.366;2023-04-15T12:43:53;13.00;99.90
33645;DHT22;19986;48.190;16.366;2023-04-15T12:46:19;12.90;99.90
33645;DHT22;19986;48.190;16.366;2023-04-15T12:48:45;12.90;99.90
33645;DHT22;19986;48.190;16.366;2023-04-15T12:51:11;13.00;99.90
33645;DHT22;19986;48.190;16.366;2023-04-15T12:53:36;13.20;99.90
33645;DHT22;19986;48.190;16.366;2023-04-15T12:56:02;13.30;99.90
33645;DHT22;19986;48.190;16.366;2023-04-15T12:58:28;13.60;99.90
33645;DHT22;19986;48.190;16.366;2023-04-15T13:00:54;13.80;99.90
33645;DHT22;19986;48.190;16.366;2023-04-15T13:03:22;13.90;99.90
33645;DHT22;19986;48.190;16.366;2023-04-15T13:05:48;14.00;99.90
33645;DHT22;19986;48.190;16.366;2023-04-15T13:08:14;13.80;99.90
33645;DHT22;19986;48.190;16.366;2023-04-15T13:10:40;13.70;99.90
33645;DHT22;19986;48.190;16.366;2023-04-15T13:13:07;13.70;99.90
33645;DHT22;19986;48.190;16.366;2023-04-15T13:15:34;13.70;99.90
33645;DHT22;19986;48.190;16.366;2023-04-15T13:18:00;13.60;99.90
33645;DHT22;19986;48.190;16.366;2023-04-15T13:20:27;13.60;99.90
33645;DHT22;19986;48.190;16.366;2023-04-15T13:22:52;13.80;99.90
33645;DHT22;19986;48.190;16.366;2023-04-15T13:25:18;13.90;99.90
33645;DHT22;19986;48.190;16.366;2023-04-15T13:27:44;13.90;99.90
33645;DHT22;19986;48.190;16.366;2023-04-15T13:30:11;14.10;99.90
33645;DHT22;19986;48.190;16.366;2023-04-15T13:32:37;14.10;99.90
33645;DHT22;19986;48.190;16.366;2023-04-15T13:35:04;14.20;99.90
33645;DHT22;19986;48.190;16.366;2023-04-15T13:37:30;14.30;99.90
33645;DHT22;19986;48.190;16.366;2023-04-15T13:39:57;14.30;99.90
33645;DHT22;19986;48.190;16.366;2023-04-15T13:42:23;14.10;99.90
33645;DHT22;19986;48.190;16.366;2023-04-15T13:44:49;14.00;99.90
33645;DHT22;19986;48.190;16.366;2023-04-15T13:47:18;14.00;99.90
33645;DHT22;19986;48.190;16.366;2023-04-15T13:49:44;14.00;99.90
33645;DHT22;19986;48.190;16.366;2023-04-15T13:52:10;13.90;99.90
33645;DHT22;19986;48.190;16.366;2023-04-15T13:54:36;13.70;99.90
33645;DHT22;19986;48.190;16.366;2023-04-15T13:57:02;13.60;99.90
33645;DHT22;19986;48.190;16.366;2023-04-15T13:59:28;13.30;99.90
33645;DHT22;19986;48.190;16.366;2023-04-15T14:01:54;13.30;99.90
33645;DHT22;19986;48.190;16.366;2023-04-15T14:04:20;13.30;99.90
33645;DHT22;19986;48.190;16.366;2023-04-15T14:06:45;13.30;99.90
33645;DHT22;19986;48.190;16.366;2023-04-15T14:09:11;13.30;99.90
33645;DHT22;19986;48.190;16.366;2023-04-15T14:11:37;13.40;99.90
33645;DHT22;19986;48.190;16.366;2023-04-15T14:14:04;13.50;99.90
33645;DHT22;19986;48.190;16.366;2023-04-15T14:16:32;13.50;99.90
33645;DHT22;19986;48.190;16.366;2023-04-15T14:18:58;13.40;99.90
33645;DHT22;19986;48.190;16.366;2023-04-15T14:21:24;13.60;99.90
33645;DHT22;19986;48.190;16.366;2023-04-15T14:23:52;13.60;99.90
33645;DHT22;19986;48.190;16.366;2023-04-15T14:26:19;13.60;99.90
33645;DHT22;19986;48.190;16.366;2023-04-15T14:28:45;13.70;99.90
33645;DHT22;19986;48.190;16.366;2023-04-15T14:31:11;13.70;99.90
33645;DHT22;19986;48.190;16.366;2023-04-15T14:33:37;13.80;99.90
33645;DHT22;19986;48.190;16.366;2023-04-15T14:36:03;13.80;99.90
33645;DHT22;19986;48.190;16.366;2023-04-15T14:38:30;13.80;99.90
33645;DHT22;19986;48.190;16.366;2023-04-15T14:40:56;13.80;99.90
33645;DHT22;19986;48.190;16.366;2023-04-15T14:43:22;13.80;99.90
33645;DHT22;19986;48.190;16.366;2023-04-15T14:45:49;13.80;99.90
33645;DHT22;19986;48.190;16.366;2023-04-15T14:48:16;13.80;99.90
33645;DHT22;19986;48.190;16.366;2023-04-15T14:50:42;13.70;99.90
33645;DHT22;19986;48.190;16.366;2023-04-15T14:53:08;13.60;99.90
33645;DHT22;19986;48.190;16.366;2023-04-15T14:55:34;13.50;99.90
33645;DHT22;19986;48.190;16.366;2023-04-15T14:58:00;13.40;99.90
33645;DHT22;19986;48.190;16.366;2023-04-15T15:00:27;13.30;99.90
33645;DHT22;19986;48.190;16.366;2023-04-15T15:02:53;13.20;99.90
33645;DHT22;19986;48.190;16.366;2023-04-15T15:05:19;13.20;99.90
33645;DHT22;19986;48.190;16.366;2023-04-15T15:07:45;13.10;99.90
33645;DHT22;19986;48.190;16.366;2023-04-15T15:10:11;13.00;99.90
33645;DHT22;19986;48.190;16.366;2023-04-15T15:12:37;13.00;99.90
33645;DHT22;19986;48.190;16.366;2023-04-15T15:15:03;13.00;99.90
33645;DHT22;19986;48.190;16.366;2023-04-15T15:17:30;13.00;99.90
33645;DHT22;19986;48.190;16.366;2023-04-15T15:19:56;13.00;99.90
33645;DHT22;19986;48.190;16.366;2023-04-15T15:22:22;12.90;99.90
33645;DHT22;19986;48.190;16.366;2023-04-15T15:24:50;12.80;99.90
33645;DHT22;19986;48.190;16.366;2023-04-15T15:27:16;12.80;99.90
33645;DHT22;19986;48.190;16.366;2023-04-15T15:29:42;12.80;99.90
33645;DHT22;19986;48.190;16.366;2023-04-15T15:32:08;12.80;99.90
33645;DHT22;19986;48.190;16.366;2023-04-15T15:34:33;12.80;99.90
33645;DHT22;19986;48.190;16.366;2023-04-15T15:36:59;12.80;99.90
33645;DHT22;19986;48.190;16.366;2023-04-15T15:39:25;12.90;99.90
33645;DHT22;19986;48.190;16.366;2023-04-15T15:41:52;12.80;99.90
33645;DHT22;19986;48.190;16.366;2023-04-15T15:44:18;12.70;99.90
33645;DHT22;19986;48.190;16.366;2023-04-15T15:46:43;12.70;99.90
33645;DHT22;19986;48.190;16.366;2023-04-15T15:49:10;12.50;99.90
33645;DHT22;19986;48.190;16.366;2023-04-15T15:51:36;12.50;99.90
33645;DHT22;19986;48.190;16.366;2023-04-15T15:54:02;12.50;99.90